AFL6512 UNNT-UNOO
Flight info
| Callsign | AFL6512 |
|---|---|
| Flight time | 1h 5m |
| Altitude | 38000 |
| Route | OGAMA1K OGAMA A308 OSNAB G828 SZ A487 URUKI A844 RUMOD RUMOD5B |
| Aircraft | B738/M-SDE2E3FGHIRWXY/LB1 |
Departure
| Time | 2026-04-26 12:27 |
|---|---|
| Airport | Novosibirsk Tolmachevo Airport (UNNT) |
Arrival
| Time | 2026-04-26 13:32 |
|---|---|
| Airport | Omsk Central Airport (UNOO) |
| Time | Latitude | Longitude | Altitude | Speed | Heading |
|---|---|---|---|---|---|
| 2026-04-26 12:03 | 55.01095 | 82.66474 | 372 ft | 0 kts | 171° |
| 2026-04-26 12:12 | 55.01094 | 82.66474 | 400 ft | 1 kts | 171° |
| 2026-04-26 12:12 | 55.01086 | 82.66476 | 372 ft | 0 kts | 171° |
| 2026-04-26 12:14 | 55.01067 | 82.66482 | 372 ft | 5 kts | 168° |
| 2026-04-26 12:14 | 55.01060 | 82.66544 | 372 ft | 7 kts | 70° |
| 2026-04-26 12:15 | 55.01081 | 82.66625 | 372 ft | 7 kts | 58° |
| 2026-04-26 12:15 | 55.01125 | 82.66650 | 372 ft | 7 kts | 355° |
| 2026-04-26 12:15 | 55.01162 | 82.66641 | 372 ft | 0 kts | 356° |
| 2026-04-26 12:21 | 55.01164 | 82.66641 | 372 ft | 1 kts | 356° |
| 2026-04-26 12:21 | 55.01175 | 82.66640 | 372 ft | 4 kts | 356° |
| 2026-04-26 12:22 | 55.01206 | 82.66635 | 372 ft | 5 kts | 354° |
| 2026-04-26 12:22 | 55.01239 | 82.66627 | 372 ft | 4 kts | 352° |
| 2026-04-26 12:22 | 55.01245 | 82.66625 | 372 ft | 0 kts | 351° |
| 2026-04-26 12:24 | 55.01256 | 82.66622 | 372 ft | 6 kts | 351° |
| 2026-04-26 12:25 | 55.01347 | 82.66599 | 373 ft | 5 kts | 351° |
| 2026-04-26 12:25 | 55.01376 | 82.66584 | 373 ft | 4 kts | 317° |
| 2026-04-26 12:25 | 55.01376 | 82.66531 | 374 ft | 2 kts | 262° |
| 2026-04-26 12:25 | 55.01375 | 82.66513 | 374 ft | 1 kts | 262° |
| 2026-04-26 12:26 | 55.01370 | 82.66459 | 374 ft | 11 kts | 262° |
| 2026-04-26 12:26 | 55.01338 | 82.66097 | 371 ft | 64 kts | 261° |
| 2026-04-26 12:26 | 55.01228 | 82.64905 | 371 ft | 132 kts | 261° |
| 2026-04-26 12:26 | 55.01052 | 82.63066 | 640 ft | 164 kts | 258° |
| 2026-04-26 12:27 | 55.00895 | 82.61079 | 1409 ft | 167 kts | 255° |
| 2026-04-26 12:27 | 55.00738 | 82.59075 | 2212 ft | 165 kts | 251° |
| 2026-04-26 12:27 | 55.00568 | 82.57070 | 2959 ft | 177 kts | 251° |
| 2026-04-26 12:27 | 55.00339 | 82.54792 | 3237 ft | 207 kts | 251° |
| 2026-04-26 12:28 | 55.00263 | 82.52136 | 3621 ft | 236 kts | 271° |
| 2026-04-26 12:28 | 55.00812 | 82.49287 | 4163 ft | 262 kts | 291° |
| 2026-04-26 12:28 | 55.01947 | 82.46588 | 4742 ft | 289 kts | 309° |
| 2026-04-26 12:28 | 55.03482 | 82.44305 | 5757 ft | 288 kts | 315° |
| 2026-04-26 12:29 | 55.04583 | 82.41534 | 6501 ft | 274 kts | 274° |
| 2026-04-26 12:29 | 55.04876 | 82.38331 | 7624 ft | 260 kts | 270° |
| 2026-04-26 12:29 | 55.05356 | 82.31924 | 9238 ft | 273 kts | 271° |
| 2026-04-26 12:30 | 55.05616 | 82.28660 | 10055 ft | 277 kts | 272° |
| 2026-04-26 12:30 | 55.05897 | 82.25216 | 10388 ft | 299 kts | 272° |
| 2026-04-26 12:30 | 55.06209 | 82.21466 | 10630 ft | 323 kts | 273° |
| 2026-04-26 12:31 | 55.06908 | 82.13509 | 11997 ft | 336 kts | 274° |
| 2026-04-26 12:31 | 55.07272 | 82.09464 | 12807 ft | 338 kts | 274° |
| 2026-04-26 12:31 | 55.07641 | 82.05389 | 13602 ft | 342 kts | 274° |
| 2026-04-26 12:31 | 55.08010 | 82.01306 | 14264 ft | 346 kts | 274° |
| 2026-04-26 12:32 | 55.08386 | 81.97135 | 14963 ft | 349 kts | 274° |
| 2026-04-26 12:32 | 55.08764 | 81.92926 | 15659 ft | 353 kts | 274° |
| 2026-04-26 12:32 | 55.09528 | 81.84380 | 17028 ft | 360 kts | 274° |
| 2026-04-26 12:33 | 55.09913 | 81.80035 | 17717 ft | 363 kts | 274° |
| 2026-04-26 12:33 | 55.10300 | 81.75653 | 18341 ft | 366 kts | 274° |
| 2026-04-26 12:33 | 55.10689 | 81.71235 | 18940 ft | 369 kts | 273° |
| 2026-04-26 12:33 | 55.10900 | 81.68829 | 19282 ft | 370 kts | 273° |
| 2026-04-26 12:34 | 55.11290 | 81.64379 | 19891 ft | 372 kts | 273° |
| 2026-04-26 12:34 | 55.11680 | 81.59897 | 20494 ft | 374 kts | 273° |
| 2026-04-26 12:34 | 55.12066 | 81.55448 | 21064 ft | 377 kts | 273° |
| 2026-04-26 12:34 | 55.12458 | 81.50904 | 21632 ft | 379 kts | 273° |
| 2026-04-26 12:35 | 55.12851 | 81.46333 | 22206 ft | 381 kts | 273° |
| 2026-04-26 12:35 | 55.13244 | 81.41738 | 22763 ft | 384 kts | 273° |
| 2026-04-26 12:35 | 55.13638 | 81.37108 | 23302 ft | 386 kts | 274° |
| 2026-04-26 12:35 | 55.14033 | 81.32437 | 23747 ft | 389 kts | 274° |
| 2026-04-26 12:36 | 55.14428 | 81.27754 | 24184 ft | 391 kts | 274° |
| 2026-04-26 12:36 | 55.14824 | 81.23038 | 24641 ft | 393 kts | 273° |
| 2026-04-26 12:36 | 55.15219 | 81.18305 | 25069 ft | 395 kts | 273° |
| 2026-04-26 12:36 | 55.15615 | 81.13541 | 25482 ft | 397 kts | 273° |
| 2026-04-26 12:37 | 55.16011 | 81.08748 | 25909 ft | 399 kts | 273° |
| 2026-04-26 12:37 | 55.16274 | 81.05562 | 26185 ft | 400 kts | 273° |
| 2026-04-26 12:37 | 55.16617 | 81.01373 | 26532 ft | 402 kts | 273° |
| 2026-04-26 12:37 | 55.17014 | 80.96507 | 26915 ft | 404 kts | 273° |
| 2026-04-26 12:38 | 55.17229 | 80.93868 | 27117 ft | 406 kts | 273° |
| 2026-04-26 12:38 | 55.17625 | 80.88973 | 27503 ft | 408 kts | 273° |
| 2026-04-26 12:38 | 55.18022 | 80.84041 | 27885 ft | 409 kts | 273° |
| 2026-04-26 12:38 | 55.18419 | 80.79096 | 28251 ft | 411 kts | 273° |
| 2026-04-26 12:39 | 55.18815 | 80.74127 | 28607 ft | 413 kts | 272° |
| 2026-04-26 12:39 | 55.19211 | 80.69130 | 28955 ft | 416 kts | 272° |
| 2026-04-26 12:39 | 55.19607 | 80.64109 | 29315 ft | 417 kts | 272° |
| 2026-04-26 12:39 | 55.20002 | 80.59090 | 29825 ft | 415 kts | 272° |
| 2026-04-26 12:40 | 55.20393 | 80.54116 | 30300 ft | 411 kts | 272° |
| 2026-04-26 12:40 | 55.20778 | 80.49182 | 30790 ft | 407 kts | 272° |
| 2026-04-26 12:40 | 55.21158 | 80.44273 | 31218 ft | 405 kts | 272° |
| 2026-04-26 12:40 | 55.21528 | 80.39461 | 31611 ft | 404 kts | 272° |
| 2026-04-26 12:41 | 55.21900 | 80.34585 | 32035 ft | 402 kts | 271° |
| 2026-04-26 12:41 | 55.22267 | 80.29757 | 32474 ft | 399 kts | 271° |
| 2026-04-26 12:41 | 55.22630 | 80.24946 | 32904 ft | 396 kts | 271° |
| 2026-04-26 12:42 | 55.22960 | 80.20566 | 33274 ft | 395 kts | 271° |
| 2026-04-26 12:42 | 55.23315 | 80.15810 | 33664 ft | 393 kts | 271° |
| 2026-04-26 12:42 | 55.23599 | 80.11988 | 33919 ft | 392 kts | 271° |
| 2026-04-26 12:43 | 55.23848 | 80.08630 | 34066 ft | 393 kts | 271° |
| 2026-04-26 12:43 | 55.24043 | 80.05968 | 34167 ft | 394 kts | 271° |
| 2026-04-26 12:43 | 55.24282 | 80.02708 | 34299 ft | 395 kts | 271° |
| 2026-04-26 12:44 | 55.24385 | 80.01298 | 34364 ft | 396 kts | 271° |
| 2026-04-26 12:44 | 55.24584 | 79.98568 | 34503 ft | 396 kts | 271° |
| 2026-04-26 12:44 | 55.24929 | 79.93844 | 34741 ft | 396 kts | 271° |
| 2026-04-26 12:45 | 55.25373 | 79.87710 | 34977 ft | 398 kts | 271° |
| 2026-04-26 12:45 | 55.25719 | 79.82892 | 35204 ft | 399 kts | 271° |
| 2026-04-26 12:45 | 55.26064 | 79.78079 | 35451 ft | 399 kts | 271° |
| 2026-04-26 12:45 | 55.26408 | 79.73251 | 35643 ft | 400 kts | 271° |
| 2026-04-26 12:46 | 55.26752 | 79.68385 | 35643 ft | 403 kts | 271° |
| 2026-04-26 12:46 | 55.27438 | 79.58606 | 35652 ft | 403 kts | 271° |
| 2026-04-26 12:47 | 55.28112 | 79.48939 | 35646 ft | 397 kts | 271° |
| 2026-04-26 12:47 | 55.28771 | 79.39327 | 35658 ft | 397 kts | 271° |
| 2026-04-26 12:48 | 55.29421 | 79.29709 | 35658 ft | 397 kts | 271° |
| 2026-04-26 12:48 | 55.30065 | 79.20067 | 35657 ft | 398 kts | 271° |
| 2026-04-26 12:49 | 55.30703 | 79.10408 | 35656 ft | 399 kts | 271° |
| 2026-04-26 12:49 | 55.31332 | 79.00775 | 35650 ft | 400 kts | 271° |
| 2026-04-26 12:50 | 55.31960 | 78.91048 | 35650 ft | 401 kts | 270° |
| 2026-04-26 12:50 | 55.32580 | 78.81304 | 35651 ft | 402 kts | 270° |
| 2026-04-26 12:51 | 55.33195 | 78.71536 | 35650 ft | 403 kts | 270° |
| 2026-04-26 12:51 | 55.33803 | 78.61734 | 35647 ft | 404 kts | 270° |
| 2026-04-26 12:52 | 55.34403 | 78.51927 | 35647 ft | 404 kts | 270° |
| 2026-04-26 12:52 | 55.34998 | 78.42098 | 35643 ft | 404 kts | 270° |
| 2026-04-26 12:53 | 55.35585 | 78.32266 | 35644 ft | 404 kts | 270° |
| 2026-04-26 12:53 | 55.36222 | 78.22498 | 35647 ft | 405 kts | 271° |
| 2026-04-26 12:54 | 55.36933 | 78.12668 | 35646 ft | 405 kts | 271° |
| 2026-04-26 12:54 | 55.37636 | 78.02838 | 35647 ft | 405 kts | 271° |
| 2026-04-26 12:55 | 55.38321 | 77.93016 | 35642 ft | 404 kts | 270° |
| 2026-04-26 12:55 | 55.38994 | 77.83199 | 35646 ft | 404 kts | 270° |
| 2026-04-26 12:56 | 55.39657 | 77.73388 | 35651 ft | 404 kts | 270° |
| 2026-04-26 12:56 | 55.40309 | 77.63606 | 35647 ft | 404 kts | 270° |
| 2026-04-26 12:57 | 55.40956 | 77.53784 | 35652 ft | 404 kts | 270° |
| 2026-04-26 12:57 | 55.41596 | 77.43954 | 35652 ft | 404 kts | 270° |
| 2026-04-26 12:58 | 55.42543 | 77.29163 | 35655 ft | 405 kts | 269° |
| 2026-04-26 12:58 | 55.43165 | 77.19297 | 35665 ft | 406 kts | 269° |
| 2026-04-26 12:59 | 55.43776 | 77.09473 | 35667 ft | 406 kts | 269° |
| 2026-04-26 12:59 | 55.44385 | 76.99560 | 35664 ft | 407 kts | 269° |
| 2026-04-26 13:00 | 55.44984 | 76.89708 | 35660 ft | 400 kts | 268° |
| 2026-04-26 13:00 | 55.45567 | 76.79929 | 35678 ft | 405 kts | 268° |
| 2026-04-26 13:01 | 55.45857 | 76.74957 | 35532 ft | 413 kts | 268° |
| 2026-04-26 13:01 | 55.46151 | 76.69873 | 35184 ft | 419 kts | 268° |
| 2026-04-26 13:01 | 55.46449 | 76.64792 | 34766 ft | 415 kts | 268° |
| 2026-04-26 13:01 | 55.46741 | 76.59830 | 34390 ft | 410 kts | 267° |
| 2026-04-26 13:02 | 55.47035 | 76.54794 | 33993 ft | 407 kts | 266° |
| 2026-04-26 13:02 | 55.47318 | 76.49857 | 33562 ft | 403 kts | 266° |
| 2026-04-26 13:02 | 55.47596 | 76.44965 | 33105 ft | 399 kts | 266° |
| 2026-04-26 13:02 | 55.47865 | 76.40183 | 32691 ft | 395 kts | 265° |
| 2026-04-26 13:03 | 55.48132 | 76.35396 | 32286 ft | 391 kts | 265° |
| 2026-04-26 13:03 | 55.48395 | 76.30652 | 31892 ft | 387 kts | 265° |
| 2026-04-26 13:03 | 55.48652 | 76.25955 | 31520 ft | 383 kts | 265° |
| 2026-04-26 13:03 | 55.48907 | 76.21296 | 31143 ft | 381 kts | 265° |
| 2026-04-26 13:04 | 55.49158 | 76.16659 | 30760 ft | 378 kts | 264° |
| 2026-04-26 13:04 | 55.49406 | 76.12065 | 30384 ft | 376 kts | 264° |
| 2026-04-26 13:04 | 55.49649 | 76.07446 | 29876 ft | 378 kts | 264° |
| 2026-04-26 13:04 | 55.49887 | 76.02842 | 29431 ft | 376 kts | 263° |
| 2026-04-26 13:05 | 55.50124 | 75.98274 | 29021 ft | 372 kts | 263° |
| 2026-04-26 13:05 | 55.50357 | 75.93752 | 28637 ft | 368 kts | 263° |
| 2026-04-26 13:05 | 55.50588 | 75.89279 | 28249 ft | 364 kts | 263° |
| 2026-04-26 13:05 | 55.50813 | 75.84852 | 27900 ft | 360 kts | 263° |
| 2026-04-26 13:06 | 55.51033 | 75.80475 | 27515 ft | 356 kts | 263° |
| 2026-04-26 13:06 | 55.51249 | 75.76142 | 27154 ft | 352 kts | 262° |
| 2026-04-26 13:06 | 55.51459 | 75.71907 | 26798 ft | 349 kts | 262° |
| 2026-04-26 13:06 | 55.51668 | 75.67654 | 26448 ft | 346 kts | 262° |
| 2026-04-26 13:07 | 55.51873 | 75.63435 | 26096 ft | 343 kts | 262° |
| 2026-04-26 13:07 | 55.52075 | 75.59263 | 25748 ft | 340 kts | 262° |
| 2026-04-26 13:07 | 55.52273 | 75.55127 | 25412 ft | 337 kts | 261° |
| 2026-04-26 13:07 | 55.52469 | 75.51011 | 25073 ft | 335 kts | 261° |
| 2026-04-26 13:08 | 55.52597 | 75.48313 | 24841 ft | 333 kts | 261° |
| 2026-04-26 13:08 | 55.52789 | 75.44244 | 24505 ft | 331 kts | 261° |
| 2026-04-26 13:08 | 55.52977 | 75.40208 | 24166 ft | 329 kts | 261° |
| 2026-04-26 13:08 | 55.53224 | 75.34896 | 23717 ft | 327 kts | 261° |
| 2026-04-26 13:09 | 55.53407 | 75.30906 | 23381 ft | 325 kts | 260° |
| 2026-04-26 13:09 | 55.53529 | 75.28223 | 23114 ft | 324 kts | 260° |
| 2026-04-26 13:09 | 55.53710 | 75.24262 | 22737 ft | 322 kts | 260° |
| 2026-04-26 13:09 | 55.53888 | 75.20339 | 22387 ft | 319 kts | 260° |
| 2026-04-26 13:10 | 55.54062 | 75.16494 | 22055 ft | 317 kts | 260° |
| 2026-04-26 13:10 | 55.54235 | 75.12635 | 21721 ft | 314 kts | 259° |
| 2026-04-26 13:10 | 55.54404 | 75.08814 | 21396 ft | 311 kts | 259° |
| 2026-04-26 13:10 | 55.54573 | 75.05019 | 21083 ft | 308 kts | 259° |
| 2026-04-26 13:11 | 55.54740 | 75.01254 | 20768 ft | 306 kts | 259° |
| 2026-04-26 13:11 | 55.54905 | 74.97534 | 20458 ft | 303 kts | 259° |
| 2026-04-26 13:11 | 55.55067 | 74.93826 | 20149 ft | 301 kts | 259° |
| 2026-04-26 13:11 | 55.55226 | 74.90141 | 19847 ft | 301 kts | 259° |
| 2026-04-26 13:12 | 55.55382 | 74.86448 | 19517 ft | 302 kts | 259° |
| 2026-04-26 13:12 | 55.55539 | 74.82762 | 19220 ft | 300 kts | 259° |
| 2026-04-26 13:12 | 55.55696 | 74.79087 | 18911 ft | 299 kts | 259° |
| 2026-04-26 13:12 | 55.55850 | 74.75441 | 18607 ft | 297 kts | 260° |
| 2026-04-26 13:13 | 55.56002 | 74.71812 | 18306 ft | 296 kts | 260° |
| 2026-04-26 13:13 | 55.56150 | 74.68246 | 17991 ft | 295 kts | 260° |
| 2026-04-26 13:13 | 55.56173 | 74.67698 | 17939 ft | 294 kts | 260° |
| 2026-04-26 13:13 | 55.56321 | 74.64095 | 17607 ft | 293 kts | 261° |
| 2026-04-26 13:14 | 55.56468 | 74.60519 | 17280 ft | 291 kts | 261° |
| 2026-04-26 13:14 | 55.56520 | 74.59252 | 17165 ft | 290 kts | 261° |
| 2026-04-26 13:14 | 55.56583 | 74.57695 | 17037 ft | 289 kts | 261° |
| 2026-04-26 13:14 | 55.56726 | 74.54183 | 16742 ft | 286 kts | 262° |
| 2026-04-26 13:15 | 55.56866 | 74.50694 | 16453 ft | 283 kts | 262° |
| 2026-04-26 13:15 | 55.57004 | 74.47231 | 16153 ft | 281 kts | 262° |
| 2026-04-26 13:15 | 55.57139 | 74.43809 | 15863 ft | 278 kts | 263° |
| 2026-04-26 13:15 | 55.57272 | 74.40407 | 15573 ft | 276 kts | 263° |
| 2026-04-26 13:16 | 55.57404 | 74.37039 | 15292 ft | 275 kts | 264° |
| 2026-04-26 13:16 | 55.57534 | 74.33654 | 15011 ft | 277 kts | 264° |
| 2026-04-26 13:16 | 55.57661 | 74.30283 | 14718 ft | 280 kts | 265° |
| 2026-04-26 13:16 | 55.57791 | 74.26831 | 14424 ft | 283 kts | 265° |
| 2026-04-26 13:17 | 55.56984 | 74.20420 | 13797 ft | 262 kts | 233° |
| 2026-04-26 13:17 | 55.55793 | 74.18028 | 13394 ft | 260 kts | 220° |
| 2026-04-26 13:18 | 55.53013 | 74.13887 | 12583 ft | 262 kts | 219° |
| 2026-04-26 13:18 | 55.51612 | 74.11840 | 12200 ft | 262 kts | 219° |
| 2026-04-26 13:18 | 55.48804 | 74.07716 | 11450 ft | 263 kts | 220° |
| 2026-04-26 13:19 | 55.47397 | 74.05641 | 11084 ft | 264 kts | 221° |
| 2026-04-26 13:19 | 55.45990 | 74.03566 | 10716 ft | 264 kts | 221° |
| 2026-04-26 13:19 | 55.44571 | 74.01470 | 10322 ft | 267 kts | 221° |
| 2026-04-26 13:19 | 55.43147 | 73.99365 | 9986 ft | 267 kts | 222° |
| 2026-04-26 13:20 | 55.41746 | 73.97297 | 9839 ft | 259 kts | 222° |
| 2026-04-26 13:20 | 55.40372 | 73.95272 | 9570 ft | 257 kts | 223° |
| 2026-04-26 13:20 | 55.39001 | 73.93251 | 9271 ft | 256 kts | 223° |
| 2026-04-26 13:20 | 55.37652 | 73.91268 | 8971 ft | 255 kts | 223° |
| 2026-04-26 13:21 | 55.36291 | 73.89254 | 8475 ft | 261 kts | 224° |
| 2026-04-26 13:21 | 55.35350 | 73.87844 | 8207 ft | 263 kts | 224° |
| 2026-04-26 13:21 | 55.33484 | 73.85054 | 7729 ft | 264 kts | 225° |
| 2026-04-26 13:21 | 55.32092 | 73.82977 | 7439 ft | 262 kts | 225° |
| 2026-04-26 13:22 | 55.30696 | 73.80903 | 7139 ft | 261 kts | 224° |
| 2026-04-26 13:22 | 55.29175 | 73.79191 | 6858 ft | 266 kts | 212° |
| 2026-04-26 13:22 | 55.27493 | 73.77819 | 6556 ft | 267 kts | 210° |
| 2026-04-26 13:22 | 55.25786 | 73.76511 | 6265 ft | 267 kts | 210° |
| 2026-04-26 13:23 | 55.24141 | 73.75248 | 5972 ft | 266 kts | 210° |
| 2026-04-26 13:24 | 55.23572 | 73.74808 | 5874 ft | 266 kts | 210° |
| 2026-04-26 13:24 | 55.21889 | 73.73493 | 5583 ft | 264 kts | 210° |
| 2026-04-26 13:24 | 55.20223 | 73.72180 | 5313 ft | 261 kts | 211° |
| 2026-04-26 13:25 | 55.18582 | 73.70877 | 5074 ft | 258 kts | 211° |
| 2026-04-26 13:25 | 55.17071 | 73.69673 | 4836 ft | 256 kts | 211° |
| 2026-04-26 13:25 | 55.15457 | 73.68382 | 4582 ft | 254 kts | 211° |
| 2026-04-26 13:25 | 55.13850 | 73.67098 | 4318 ft | 253 kts | 211° |
| 2026-04-26 13:26 | 55.12270 | 73.65839 | 4253 ft | 245 kts | 211° |
| 2026-04-26 13:26 | 55.10727 | 73.64610 | 4022 ft | 244 kts | 211° |
| 2026-04-26 13:26 | 55.09161 | 73.63476 | 3791 ft | 245 kts | 205° |
| 2026-04-26 13:26 | 55.07530 | 73.62594 | 3559 ft | 244 kts | 203° |
| 2026-04-26 13:27 | 55.05905 | 73.61753 | 3308 ft | 243 kts | 203° |
| 2026-04-26 13:27 | 55.04287 | 73.60904 | 3054 ft | 243 kts | 203° |
| 2026-04-26 13:27 | 55.02675 | 73.60048 | 2807 ft | 241 kts | 203° |
| 2026-04-26 13:27 | 55.01094 | 73.59122 | 2545 ft | 235 kts | 213° |
| 2026-04-26 13:28 | 55.00036 | 73.57172 | 2273 ft | 219 kts | 253° |
| 2026-04-26 13:28 | 54.99729 | 73.54634 | 2047 ft | 209 kts | 262° |
| 2026-04-26 13:28 | 54.99460 | 73.52247 | 1921 ft | 197 kts | 260° |
| 2026-04-26 13:28 | 54.99211 | 73.50012 | 1901 ft | 178 kts | 262° |
| 2026-04-26 13:29 | 54.98988 | 73.48020 | 1884 ft | 157 kts | 259° |
| 2026-04-26 13:29 | 54.98831 | 73.46809 | 1885 ft | 149 kts | 258° |
| 2026-04-26 13:29 | 54.98525 | 73.44523 | 1671 ft | 142 kts | 258° |
| 2026-04-26 13:29 | 54.98307 | 73.42910 | 1500 ft | 134 kts | 258° |
| 2026-04-26 13:30 | 54.98097 | 73.41338 | 1298 ft | 132 kts | 257° |
| 2026-04-26 13:30 | 54.97883 | 73.39749 | 1110 ft | 136 kts | 257° |
| 2026-04-26 13:30 | 54.97665 | 73.38115 | 951 ft | 140 kts | 256° |
| 2026-04-26 13:30 | 54.97430 | 73.36419 | 752 ft | 147 kts | 255° |
| 2026-04-26 13:31 | 54.97205 | 73.34677 | 556 ft | 147 kts | 256° |
| 2026-04-26 13:31 | 54.96969 | 73.32949 | 360 ft | 146 kts | 254° |
| 2026-04-26 13:31 | 54.96757 | 73.31370 | 303 ft | 114 kts | 254° |
| 2026-04-26 13:31 | 54.96626 | 73.30409 | 312 ft | 51 kts | 257° |
| 2026-04-26 13:32 | 54.96554 | 73.29849 | 315 ft | 44 kts | 257° |
| 2026-04-26 13:32 | 54.96504 | 73.29474 | 321 ft | 22 kts | 257° |
| 2026-04-26 13:32 | 54.96472 | 73.29233 | 318 ft | 14 kts | 256° |
| 2026-04-26 13:32 | 54.96389 | 73.29166 | 317 ft | 15 kts | 171° |
| 2026-04-26 13:33 | 54.96291 | 73.29206 | 315 ft | 14 kts | 166° |
| 2026-04-26 13:33 | 54.96197 | 73.29245 | 314 ft | 14 kts | 166° |
| 2026-04-26 13:33 | 54.96107 | 73.29283 | 314 ft | 13 kts | 158° |
| 2026-04-26 13:33 | 54.96088 | 73.29420 | 311 ft | 13 kts | 75° |
| 2026-04-26 13:34 | 54.96110 | 73.29582 | 310 ft | 14 kts | 77° |
| 2026-04-26 13:34 | 54.96131 | 73.29753 | 310 ft | 15 kts | 77° |
| 2026-04-26 13:34 | 54.96148 | 73.29888 | 306 ft | 15 kts | 77° |
| 2026-04-26 13:35 | 54.96170 | 73.30031 | 305 ft | 15 kts | 76° |
| 2026-04-26 13:35 | 54.96193 | 73.30197 | 305 ft | 14 kts | 76° |
| 2026-04-26 13:35 | 54.96214 | 73.30357 | 305 ft | 13 kts | 78° |
| 2026-04-26 13:35 | 54.96233 | 73.30511 | 304 ft | 13 kts | 76° |
| 2026-04-26 13:36 | 54.96255 | 73.30660 | 305 ft | 12 kts | 76° |
| 2026-04-26 13:36 | 54.96274 | 73.30806 | 302 ft | 12 kts | 77° |
| 2026-04-26 13:36 | 54.96292 | 73.30948 | 303 ft | 12 kts | 77° |
| 2026-04-26 13:36 | 54.96311 | 73.31098 | 299 ft | 15 kts | 77° |
| 2026-04-26 13:37 | 54.96338 | 73.31286 | 299 ft | 16 kts | 77° |
| 2026-04-26 13:37 | 54.96363 | 73.31474 | 299 ft | 16 kts | 77° |
| 2026-04-26 13:37 | 54.96359 | 73.31639 | 299 ft | 14 kts | 128° |
| 2026-04-26 13:37 | 54.96293 | 73.31749 | 300 ft | 13 kts | 138° |
| 2026-04-26 13:38 | 54.96230 | 73.31848 | 298 ft | 12 kts | 138° |
| 2026-04-26 13:38 | 54.96172 | 73.31900 | 297 ft | 9 kts | 197° |
| 2026-04-26 13:38 | 54.96125 | 73.31833 | 297 ft | 8 kts | 227° |
| 2026-04-26 13:38 | 54.96088 | 73.31762 | 297 ft | 8 kts | 225° |
| 2026-04-26 13:39 | 54.96058 | 73.31691 | 297 ft | 7 kts | 261° |
| 2026-04-26 13:39 | 54.96067 | 73.31605 | 297 ft | 7 kts | 272° |
| 2026-04-26 13:39 | 54.96044 | 73.31561 | 298 ft | 4 kts | 176° |
| 2026-04-26 13:39 | 54.96034 | 73.31564 | 297 ft | 0 kts | 165° |
| 2026-04-26 13:40 | 54.96033 | 73.31565 | 297 ft | 1 kts | 166° |
| 2026-04-26 13:41 | 54.96029 | 73.31566 | 297 ft | 0 kts | 166° |